Time;durP1;ratioP1;P1;durP2;ratioP2;P2;SDS_P1;SDS_P2;PMS_P1;PMS_P2;Temp;Humidity;BMP_temperature;BMP_pressure;BME280_temperature;BME280_humidity;BME280_pressure;Samples;Min_cycle;Max_cycle;Signal;HPM_P1;HPM_P2
2023/07/31 00:00:37;;;;;;;4.27;1.33;;;;;;;;;;5074723;28;20173;-80
2023/07/31 00:03:03;;;;;;;3.97;1.40;;;;;;;;;;5074759;28;20174;-78
2023/07/31 00:05:29;;;;;;;4.80;1.30;;;;;;;;;;5074710;28;20945;-80
2023/07/31 00:07:54;;;;;;;106.37;12.07;;;;;;;;;;5074197;28;20487;-78
2023/07/31 00:10:21;;;;;;;5.03;0.93;;;;;;;;;;5074584;28;20184;-79
2023/07/31 00:12:47;;;;;;;3.30;0.97;;;;;;;;;;5074486;28;20409;-78
2023/07/31 00:15:13;;;;;;;4.97;0.70;;;;;;;;;;5074400;28;20795;-78
2023/07/31 00:17:39;;;;;;;5.07;0.70;;;;;;;;;;5074428;28;20408;-78
2023/07/31 00:20:05;;;;;;;2.93;0.60;;;;;;;;;;5074403;28;20415;-78
2023/07/31 00:22:31;;;;;;;8.07;1.10;;;;;;;;;;5072748;28;20521;-78
2023/07/31 00:24:58;;;;;;;3.60;0.50;;;;;;;;;;5074295;28;20428;-78
2023/07/31 00:27:24;;;;;;;3.07;0.93;;;;;;;;;;5074236;28;20201;-79
2023/07/31 00:29:50;;;;;;;4.83;1.17;;;;;;;;;;5072942;28;20441;-78
2023/07/31 00:32:15;;;;;;;2.87;0.60;;;;;;;;;;5074291;28;20499;-77
2023/07/31 00:34:41;;;;;;;4.37;0.83;;;;;;;;;;5073849;28;20183;-77
2023/07/31 00:37:07;;;;;;;10.63;1.37;;;;;;;;;;5073602;28;20902;-79
2023/07/31 00:39:34;;;;;;;4.03;0.97;;;;;;;;;;5074043;28;20221;-78
2023/07/31 00:42:00;;;;;;;1.80;0.47;;;;;;;;;;5073660;28;20425;-78
2023/07/31 00:44:26;;;;;;;2.70;0.27;;;;;;;;;;5073990;28;20903;-78
2023/07/31 00:46:52;;;;;;;4.10;0.30;;;;;;;;;;5073795;28;20456;-78
2023/07/31 00:49:18;;;;;;;4.67;1.03;;;;;;;;;;5073768;28;20504;-78
2023/07/31 00:51:44;;;;;;;1.50;0.40;;;;;;;;;;5073354;28;20502;-77
2023/07/31 00:54:11;;;;;;;3.07;1.90;;;;;;;;;;5072479;28;21012;-78
2023/07/31 00:56:37;;;;;;;4.40;1.10;;;;;;;;;;5073670;28;20416;-79
2023/07/31 00:59:03;;;;;;;4.90;0.93;;;;;;;;;;5072300;28;20450;-80
2023/07/31 01:01:29;;;;;;;5.90;0.87;;;;;;;;;;5073514;28;20408;-78
2023/07/31 01:03:55;;;;;;;1.97;0.93;;;;;;;;;;5073447;28;20513;-78
2023/07/31 01:06:27;;;;;;;3.03;0.70;;;;;;;;;;5073538;28;20408;-78
2023/07/31 01:09:00;;;;;;;3.77;0.90;;;;;;;;;;5073364;28;20464;-78
2023/07/31 01:11:27;;;;;;;3.10;0.83;;;;;;;;;;5072973;28;20401;-78
2023/07/31 01:13:54;;;;;;;879.63;434.13;;;;;;;;;;5073247;28;20401;-78
2023/07/31 01:16:20;;;;;;;3.63;1.17;;;;;;;;;;5073399;28;20421;-78
2023/07/31 01:18:46;;;;;;;3.13;0.87;;;;;;;;;;5073335;28;20406;-78
2023/07/31 01:21:30;;;;;;;3.17;0.57;;;;;;;;;;5073249;28;20524;-79
2023/07/31 01:24:20;;;;;;;3.20;0.80;;;;;;;;;;5073224;28;20401;-78
2023/07/31 01:26:49;;;;;;;2.97;0.60;;;;;;;;;;5073320;28;20409;-78
2023/07/31 01:29:42;;;;;;;4.93;0.50;;;;;;;;;;5073089;28;20810;-78
2023/07/31 01:32:08;;;;;;;1.87;0.43;;;;;;;;;;5069530;28;20413;-78
2023/07/31 01:34:37;;;;;;;4.83;0.67;;;;;;;;;;5071833;28;20766;-77
2023/07/31 01:37:03;;;;;;;3.40;0.80;;;;;;;;;;5072739;28;20507;-78
2023/07/31 01:39:29;;;;;;;4.70;1.20;;;;;;;;;;5072990;28;20408;-78
2023/07/31 01:41:55;;;;;;;5.37;0.97;;;;;;;;;;5072788;28;20419;-78
2023/07/31 01:44:21;;;;;;;5.80;0.93;;;;;;;;;;5073087;28;20423;-78
2023/07/31 01:46:47;;;;;;;5.67;0.70;;;;;;;;;;5072983;28;20599;-78
2023/07/31 01:49:13;;;;;;;4.73;1.00;;;;;;;;;;5072870;28;20483;-78
2023/07/31 01:51:39;;;;;;;6.50;1.40;;;;;;;;;;5072556;28;20182;-78
2023/07/31 01:54:05;;;;;;;5.23;1.40;;;;;;;;;;5072801;28;20919;-78
2023/07/31 01:56:31;;;;;;;4.53;0.50;;;;;;;;;;5086039;28;20421;-78
2023/07/31 01:58:57;;;;;;;6.00;1.37;;;;;;;;;;5092949;28;20953;-80
2023/07/31 02:01:23;;;;;;;4.70;1.20;;;;;;;;;;5091854;28;20423;-78
2023/07/31 02:03:49;;;;;;;5.60;1.37;;;;;;;;;;5093034;28;20408;-78
2023/07/31 02:06:15;;;;;;;3.87;0.83;;;;;;;;;;5093158;28;20409;-79
2023/07/31 02:08:41;;;;;;;3.80;1.13;;;;;;;;;;5092533;28;20623;-79
2023/07/31 02:11:06;;;;;;;5.40;1.20;;;;;;;;;;5092918;28;20249;-79
2023/07/31 02:13:32;;;;;;;5.93;1.00;;;;;;;;;;5092970;28;20539;-78
2023/07/31 02:15:58;;;;;;;3.53;1.30;;;;;;;;;;5092963;28;20619;-78
2023/07/31 02:18:24;;;;;;;5.00;0.60;;;;;;;;;;5092957;28;20186;-79
2023/07/31 02:20:51;;;;;;;4.70;1.50;;;;;;;;;;5092867;28;20436;-79
2023/07/31 02:23:17;;;;;;;6.40;1.77;;;;;;;;;;5095118;28;20419;-79
2023/07/31 02:25:43;;;;;;;3.87;1.50;;;;;;;;;;5096824;28;20401;-79
2023/07/31 02:28:09;;;;;;;3.77;0.80;;;;;;;;;;5096693;28;20478;-79
2023/07/31 02:30:35;;;;;;;3.30;1.50;;;;;;;;;;5096819;28;20184;-78
2023/07/31 02:33:01;;;;;;;6.77;1.20;;;;;;;;;;5096816;28;20451;-79
2023/07/31 02:35:27;;;;;;;3.40;0.87;;;;;;;;;;5096752;28;20207;-79
2023/07/31 02:37:53;;;;;;;4.00;0.90;;;;;;;;;;5095003;28;20180;-79
2023/07/31 02:40:19;;;;;;;6.83;1.63;;;;;;;;;;5096599;28;20170;-80
2023/07/31 02:42:45;;;;;;;2.20;1.17;;;;;;;;;;5096398;28;21027;-80
2023/07/31 02:45:11;;;;;;;3.33;1.67;;;;;;;;;;5096538;28;20174;-80
2023/07/31 02:47:37;;;;;;;2.37;1.17;;;;;;;;;;5096422;28;20497;-79
2023/07/31 02:50:03;;;;;;;6.40;1.03;;;;;;;;;;5096437;28;20422;-79
2023/07/31 02:52:29;;;;;;;4.27;1.70;;;;;;;;;;5095980;28;20409;-79
2023/07/31 02:54:55;;;;;;;5.10;1.60;;;;;;;;;;5096239;28;20911;-80
2023/07/31 02:57:21;;;;;;;6.07;1.53;;;;;;;;;;5096336;28;20418;-78
2023/07/31 02:59:47;;;;;;;15.93;3.30;;;;;;;;;;5096231;28;20408;-79
2023/07/31 03:02:14;;;;;;;43.70;10.90;;;;;;;;;;5096193;28;20533;-80
2023/07/31 03:04:40;;;;;;;54.90;8.80;;;;;;;;;;5096191;28;20181;-79
2023/07/31 03:07:06;;;;;;;6.10;1.53;;;;;;;;;;5095682;28;20417;-79
2023/07/31 03:09:31;;;;;;;4.57;1.10;;;;;;;;;;5095984;28;20177;-79
2023/07/31 03:11:57;;;;;;;5.53;1.90;;;;;;;;;;5095965;28;20408;-80
2023/07/31 03:14:23;;;;;;;5.13;2.30;;;;;;;;;;5096011;28;20415;-79
2023/07/31 03:16:49;;;;;;;3.40;1.87;;;;;;;;;;5095972;28;21015;-80
2023/07/31 03:19:15;;;;;;;6.13;1.80;;;;;;;;;;5094584;28;20497;-78
2023/07/31 03:21:41;;;;;;;6.20;1.80;;;;;;;;;;5095528;28;20505;-78
2023/07/31 03:24:07;;;;;;;4.30;1.50;;;;;;;;;;5095692;28;20626;-79
2023/07/31 03:26:33;;;;;;;3.83;1.20;;;;;;;;;;5095815;28;20178;-78
2023/07/31 03:28:59;;;;;;;3.23;1.53;;;;;;;;;;5095605;28;20227;-80
2023/07/31 03:31:25;;;;;;;3.23;1.60;;;;;;;;;;5095671;28;20499;-79
2023/07/31 03:33:51;;;;;;;7.10;2.00;;;;;;;;;;5095205;28;20955;-80
2023/07/31 03:36:17;;;;;;;3.57;2.50;;;;;;;;;;5095175;28;20257;-80
2023/07/31 03:38:43;;;;;;;9.97;3.30;;;;;;;;;;5095466;28;20559;-81
2023/07/31 03:41:10;;;;;;;6.63;1.83;;;;;;;;;;5095493;28;20881;-79
2023/07/31 03:43:36;;;;;;;4.43;1.80;;;;;;;;;;5095088;28;20467;-78
2023/07/31 03:46:02;;;;;;;2.73;1.40;;;;;;;;;;5095338;28;20463;-80
2023/07/31 03:48:28;;;;;;;5.30;1.70;;;;;;;;;;5095333;28;20527;-79
2023/07/31 03:50:54;;;;;;;3.70;2.20;;;;;;;;;;5095147;28;20626;-79
2023/07/31 03:53:20;;;;;;;3.43;2.07;;;;;;;;;;5094915;28;20465;-78
2023/07/31 03:55:46;;;;;;;2.70;1.83;;;;;;;;;;5095175;28;20489;-80
2023/07/31 03:58:12;;;;;;;4.27;2.43;;;;;;;;;;5095093;28;20578;-79
2023/07/31 04:00:38;;;;;;;4.10;2.13;;;;;;;;;;5093250;28;20413;-78
2023/07/31 04:03:04;;;;;;;4.40;2.90;;;;;;;;;;5099124;28;20520;-78
2023/07/31 04:05:30;;;;;;;28.57;9.53;;;;;;;;;;5095008;28;20411;-78
2023/07/31 04:07:56;;;;;;;3.10;2.33;;;;;;;;;;5094492;28;20863;-79
2023/07/31 04:10:22;;;;;;;3.43;2.80;;;;;;;;;;5094295;28;20415;-79
2023/07/31 04:12:48;;;;;;;4.00;2.57;;;;;;;;;;5094230;28;20186;-80
2023/07/31 04:15:14;;;;;;;4.90;3.63;;;;;;;;;;5094772;28;20401;-78
2023/07/31 04:17:40;;;;;;;3.93;2.60;;;;;;;;;;5094738;28;20462;-79
2023/07/31 04:20:06;;;;;;;3.93;3.13;;;;;;;;;;5094695;28;20406;-79
2023/07/31 04:22:32;;;;;;;3.73;3.10;;;;;;;;;;5093989;28;20508;-79
2023/07/31 04:24:58;;;;;;;3.63;3.10;;;;;;;;;;5094577;28;20491;-78
2023/07/31 04:27:24;;;;;;;14.53;11.90;;;;;;;;;;5094484;28;20459;-78
2023/07/31 04:29:50;;;;;;;3.83;2.77;;;;;;;;;;5094600;28;20183;-78
2023/07/31 04:32:16;;;;;;;3.43;2.80;;;;;;;;;;5088676;28;20511;-79
2023/07/31 04:34:43;;;;;;;5.03;3.43;;;;;;;;;;5094387;28;20883;-80
2023/07/31 04:37:09;;;;;;;3.53;3.00;;;;;;;;;;5094036;28;20171;-79
2023/07/31 04:39:34;;;;;;;4.73;3.60;;;;;;;;;;5082000;28;20515;-79
2023/07/31 04:42:00;;;;;;;5.63;3.23;;;;;;;;;;5081876;28;20417;-79
2023/07/31 04:44:35;;;;;;;3.63;3.10;;;;;;;;;;5084299;28;20171;-81
2023/07/31 04:47:02;;;;;;;3.80;3.20;;;;;;;;;;5084193;28;20483;-79
2023/07/31 04:49:28;;;;;;;5.83;3.63;;;;;;;;;;5082331;28;20468;-78
2023/07/31 04:51:54;;;;;;;5.50;2.80;;;;;;;;;;5089732;28;20448;-78
2023/07/31 04:54:20;;;;;;;4.87;3.50;;;;;;;;;;5087782;28;20527;-79
2023/07/31 04:56:46;;;;;;;53.73;7.80;;;;;;;;;;5092112;28;20408;-81
2023/07/31 04:59:11;;;;;;;4.70;2.73;;;;;;;;;;5093640;28;20197;-80
2023/07/31 05:01:37;;;;;;;3.13;2.47;;;;;;;;;;5093898;28;20165;-80
2023/07/31 05:04:03;;;;;;;1107.47;167.90;;;;;;;;;;5093896;28;20826;-80
2023/07/31 05:06:29;;;;;;;3.27;2.97;;;;;;;;;;5093553;28;20174;-80
2023/07/31 05:08:55;;;;;;;4.20;2.83;;;;;;;;;;5093784;28;20495;-79
2023/07/31 05:11:21;;;;;;;4.23;3.47;;;;;;;;;;5093820;28;20913;-80
2023/07/31 05:13:47;;;;;;;3.97;2.40;;;;;;;;;;5093781;28;20176;-80
2023/07/31 05:16:13;;;;;;;4.43;3.20;;;;;;;;;;5093661;28;20170;-80
2023/07/31 05:18:39;;;;;;;3.60;2.13;;;;;;;;;;5093666;28;20179;-79
2023/07/31 05:21:04;;;;;;;3.00;2.60;;;;;;;;;;5093324;28;20181;-79
2023/07/31 05:23:32;;;;;;;3.90;2.63;;;;;;;;;;5093649;28;20170;-80
2023/07/31 05:26:03;;;;;;;3.97;2.63;;;;;;;;;;5093534;28;20257;-80
2023/07/31 05:28:29;;;;;;;3.93;3.33;;;;;;;;;;5093445;28;20467;-79
2023/07/31 05:30:59;;;;;;;4.67;3.50;;;;;;;;;;5092165;28;20422;-80
2023/07/31 05:33:25;;;;;;;2.90;2.60;;;;;;;;;;5093480;28;20177;-79
2023/07/31 05:35:50;;;;;;;3.77;2.17;;;;;;;;;;5093042;28;20936;-80
2023/07/31 05:38:16;;;;;;;4.03;2.80;;;;;;;;;;5093358;28;20171;-80
2023/07/31 05:40:43;;;;;;;4.03;3.10;;;;;;;;;;5093237;28;20178;-79
2023/07/31 05:43:09;;;;;;;3.20;2.00;;;;;;;;;;5093139;28;20275;-79
2023/07/31 05:45:35;;;;;;;5.53;3.07;;;;;;;;;;5093235;28;20418;-80
2023/07/31 05:48:01;;;;;;;4.40;2.93;;;;;;;;;;5093153;28;21042;-80
2023/07/31 05:50:27;;;;;;;4.33;2.63;;;;;;;;;;5091953;28;20512;-79
2023/07/31 05:52:53;;;;;;;3.57;2.33;;;;;;;;;;5092832;28;20418;-79
2023/07/31 05:55:19;;;;;;;3.10;2.50;;;;;;;;;;5093070;28;20650;-79
2023/07/31 05:57:45;;;;;;;2.90;2.27;;;;;;;;;;5093083;28;20171;-80
2023/07/31 06:00:12;;;;;;;3.50;2.10;;;;;;;;;;5093117;28;20405;-79
2023/07/31 06:02:38;;;;;;;3.57;2.43;;;;;;;;;;5093182;28;20421;-80
2023/07/31 06:05:05;;;;;;;5.60;2.33;;;;;;;;;;5093043;28;20417;-81
2023/07/31 06:07:31;;;;;;;2.40;0.53;;;;;;;;;;5092646;28;20463;-80
2023/07/31 06:10:02;;;;;;;2.60;1.93;;;;;;;;;;5093041;28;20897;-79
2023/07/31 06:12:28;;;;;;;3.10;1.50;;;;;;;;;;5093051;28;20400;-81
2023/07/31 06:14:54;;;;;;;2.30;2.10;;;;;;;;;;5092982;28;20427;-81
2023/07/31 06:17:21;;;;;;;4.07;3.50;;;;;;;;;;5092962;28;20412;-78
2023/07/31 06:19:47;;;;;;;3.13;2.83;;;;;;;;;;5092988;28;20403;-79
2023/07/31 06:22:13;;;;;;;3.10;2.43;;;;;;;;;;5092475;28;20470;-79
2023/07/31 06:24:39;;;;;;;2.93;2.70;;;;;;;;;;5092894;28;20405;-80
2023/07/31 06:27:05;;;;;;;2.80;2.43;;;;;;;;;;5092839;28;20414;-80
2023/07/31 06:29:31;;;;;;;2.70;2.20;;;;;;;;;;5091632;28;20209;-80
2023/07/31 06:31:57;;;;;;;2.13;1.80;;;;;;;;;;5092830;28;20486;-80
2023/07/31 06:34:23;;;;;;;4.17;1.90;;;;;;;;;;5091715;28;20563;-80
2023/07/31 06:36:49;;;;;;;2.80;2.30;;;;;;;;;;5092350;28;20415;-80
2023/07/31 06:39:15;;;;;;;3.00;2.80;;;;;;;;;;5092729;28;20174;-80
2023/07/31 06:41:42;;;;;;;2.90;1.67;;;;;;;;;;5092742;28;20417;-80
2023/07/31 06:44:08;;;;;;;2.80;2.20;;;;;;;;;;5092580;28;20999;-79
2023/07/31 06:46:34;;;;;;;3.33;2.30;;;;;;;;;;5092648;28;20414;-80
2023/07/31 06:49:00;;;;;;;8.03;1.53;;;;;;;;;;5092567;28;20473;-78
2023/07/31 06:51:26;;;;;;;2.00;1.73;;;;;;;;;;5092285;28;20410;-79
2023/07/31 06:53:52;;;;;;;1.67;1.40;;;;;;;;;;5092572;28;20529;-78
2023/07/31 06:56:18;;;;;;;2.03;1.57;;;;;;;;;;5091279;28;20186;-79
2023/07/31 06:58:44;;;;;;;1.80;1.07;;;;;;;;;;5092606;28;20457;-80
2023/07/31 07:01:10;;;;;;;2.37;1.80;;;;;;;;;;5092543;28;20238;-80
2023/07/31 07:03:35;;;;;;;1.83;1.70;;;;;;;;;;5092614;28;20420;-79
2023/07/31 07:06:01;;;;;;;1.70;1.40;;;;;;;;;;5092064;28;20807;-79
2023/07/31 07:08:27;;;;;;;1.20;0.50;;;;;;;;;;5093563;28;20527;-79
2023/07/31 07:10:53;;;;;;;1.50;1.00;;;;;;;;;;5096124;28;20177;-80
2023/07/31 07:13:19;;;;;;;1.10;0.90;;;;;;;;;;5095996;28;20449;-80
2023/07/31 07:15:49;;;;;;;1.50;0.93;;;;;;;;;;5094763;28;20445;-80
2023/07/31 07:18:15;;;;;;;2.10;1.43;;;;;;;;;;5095875;28;20447;-79
2023/07/31 07:20:41;;;;;;;1.00;0.33;;;;;;;;;;5094219;28;20413;-79
2023/07/31 07:23:07;;;;;;;1.50;0.93;;;;;;;;;;5095843;28;20418;-80
2023/07/31 07:25:33;;;;;;;1.63;1.07;;;;;;;;;;5095799;28;20511;-80
2023/07/31 07:27:59;;;;;;;1.40;0.60;;;;;;;;;;5095720;28;20203;-80
2023/07/31 07:30:25;;;;;;;1.00;0.77;;;;;;;;;;5095708;28;20167;-79
2023/07/31 07:32:51;;;;;;;0.87;0.47;;;;;;;;;;5095664;28;20902;-80
2023/07/31 07:35:17;;;;;;;1.00;0.63;;;;;;;;;;5095736;28;20408;-80
2023/07/31 07:37:43;;;;;;;2.43;0.77;;;;;;;;;;5095215;28;20416;-79
2023/07/31 07:40:09;;;;;;;2.17;1.20;;;;;;;;;;5095707;28;20554;-80
2023/07/31 07:42:35;;;;;;;1.57;0.60;;;;;;;;;;5095330;28;20305;-80
2023/07/31 07:45:00;;;;;;;1.40;0.70;;;;;;;;;;5095456;28;20444;-80
2023/07/31 07:47:26;;;;;;;2.87;0.90;;;;;;;;;;5094067;28;20270;-81
2023/07/31 07:49:52;;;;;;;1.70;0.60;;;;;;;;;;5095287;28;20828;-80
2023/07/31 07:52:18;;;;;;;1.23;0.40;;;;;;;;;;5094992;28;20407;-79
2023/07/31 07:54:44;;;;;;;1.90;0.40;;;;;;;;;;5095289;28;20217;-80
2023/07/31 07:57:10;;;;;;;0.90;0.47;;;;;;;;;;5095259;28;20620;-80
2023/07/31 07:59:36;;;;;;;1.30;0.40;;;;;;;;;;5095214;28;20222;-80
2023/07/31 08:02:02;;;;;;;0.50;0.30;;;;;;;;;;5095165;28;20180;-79
2023/07/31 08:04:28;;;;;;;1.10;0.30;;;;;;;;;;5095058;28;20215;-79
2023/07/31 08:06:53;;;;;;;1.23;0.50;;;;;;;;;;5094571;28;20176;-79
2023/07/31 08:09:19;;;;;;;0.73;0.40;;;;;;;;;;5094913;28;20208;-79
2023/07/31 08:11:45;;;;;;;1.43;0.70;;;;;;;;;;5094935;28;20179;-81
2023/07/31 08:14:11;;;;;;;1.00;0.23;;;;;;;;;;5094871;28;20501;-81
2023/07/31 08:16:37;;;;;;;0.90;0.30;;;;;;;;;;5094799;28;20172;-81
2023/07/31 08:19:03;;;;;;;0.60;0.20;;;;;;;;;;5094325;28;20414;-81
2023/07/31 08:21:29;;;;;;;0.70;0.20;;;;;;;;;;5093718;28;20170;-81
2023/07/31 08:23:55;;;;;;;0.87;0.30;;;;;;;;;;5094658;28;20781;-80
2023/07/31 08:26:21;;;;;;;0.67;0.30;;;;;;;;;;5094650;28;20418;-80
2023/07/31 08:28:47;;;;;;;0.67;0.33;;;;;;;;;;5094580;28;20469;-80
2023/07/31 08:31:13;;;;;;;0.97;0.20;;;;;;;;;;5094521;28;20497;-81
2023/07/31 08:33:42;;;;;;;1.23;0.30;;;;;;;;;;5093191;28;20428;-81
2023/07/31 08:36:08;;;;;;;0.80;0.43;;;;;;;;;;5094170;28;20422;-81
2023/07/31 08:38:34;;;;;;;0.70;0.30;;;;;;;;;;5094398;28;20434;-80
2023/07/31 08:41:00;;;;;;;1.00;0.30;;;;;;;;;;5094373;28;20411;-80
2023/07/31 08:43:27;;;;;;;0.70;0.20;;;;;;;;;;5094142;28;21009;-81
2023/07/31 08:45:53;;;;;;;0.90;0.20;;;;;;;;;;5094198;28;20442;-80
2023/07/31 08:48:19;;;;;;;0.90;0.30;;;;;;;;;;5094134;28;20465;-80
2023/07/31 08:50:47;;;;;;;0.50;0.20;;;;;;;;;;5093857;28;20433;-80
2023/07/31 08:53:12;;;;;;;0.60;0.20;;;;;;;;;;5094129;28;20504;-80
2023/07/31 08:55:39;;;;;;;1.67;0.40;;;;;;;;;;5094109;28;20489;-81
2023/07/31 08:58:05;;;;;;;0.47;0.20;;;;;;;;;;5094067;28;20765;-80
2023/07/31 09:00:32;;;;;;;1.13;0.20;;;;;;;;;;5093938;28;20898;-80
2023/07/31 09:03:02;;;;;;;0.40;0.20;;;;;;;;;;5107395;28;20422;-80
2023/07/31 09:05:29;;;;;;;0.50;0.20;;;;;;;;;;5093629;28;20407;-80
2023/07/31 09:07:56;;;;;;;0.40;0.20;;;;;;;;;;5093721;28;20508;-80
2023/07/31 09:10:22;;;;;;;1.67;0.20;;;;;;;;;;5093872;28;20437;-81
2023/07/31 09:12:49;;;;;;;0.30;0.20;;;;;;;;;;5093806;28;20406;-80
2023/07/31 09:15:15;;;;;;;0.50;0.20;;;;;;;;;;5093658;28;20428;-80
2023/07/31 09:17:41;;;;;;;0.30;0.20;;;;;;;;;;5093710;28;20409;-80
2023/07/31 09:20:14;;;;;;;0.93;0.30;;;;;;;;;;5093291;28;20812;-80
2023/07/31 09:22:39;;;;;;;0.40;0.20;;;;;;;;;;5093665;28;20186;-81
2023/07/31 09:25:18;;;;;;;0.57;0.20;;;;;;;;;;5093492;28;20407;-80
2023/07/31 09:27:51;;;;;;;0.50;0.20;;;;;;;;;;5093457;28;20480;-80
2023/07/31 09:30:18;;;;;;;0.50;0.20;;;;;;;;;;5093476;28;20508;-80
2023/07/31 09:32:47;;;;;;;0.40;0.20;;;;;;;;;;5093076;28;20412;-81
2023/07/31 09:35:21;;;;;;;0.40;0.20;;;;;;;;;;5093014;28;20436;-80
2023/07/31 09:37:50;;;;;;;3.90;0.20;;;;;;;;;;5093369;28;20836;-81
2023/07/31 09:40:36;;;;;;;0.60;0.20;;;;;;;;;;5093337;28;20415;-81
2023/07/31 09:43:03;;;;;;;0.30;0.20;;;;;;;;;;5093098;28;20481;-81
2023/07/31 09:45:29;;;;;;;0.40;0.20;;;;;;;;;;5093289;28;20429;-81
2023/07/31 09:47:55;;;;;;;0.50;0.20;;;;;;;;;;5093158;28;20454;-81
2023/07/31 09:50:23;;;;;;;0.30;0.10;;;;;;;;;;5092873;28;20427;-81
2023/07/31 09:52:49;;;;;;;0.40;0.20;;;;;;;;;;5093242;28;20455;-81
2023/07/31 09:55:14;;;;;;;0.40;0.20;;;;;;;;;;5093200;28;20501;-81
2023/07/31 09:57:42;;;;;;;0.30;0.20;;;;;;;;;;5093154;28;20492;-81
2023/07/31 10:00:09;;;;;;;0.60;0.20;;;;;;;;;;5093079;28;20408;-81
2023/07/31 10:02:36;;;;;;;0.30;0.20;;;;;;;;;;5093048;28;20428;-80
2023/07/31 10:05:03;;;;;;;0.33;0.10;;;;;;;;;;5092734;28;20414;-81
2023/07/31 10:07:30;;;;;;;0.30;0.20;;;;;;;;;;5092985;28;20507;-81
2023/07/31 10:09:57;;;;;;;0.30;0.10;;;;;;;;;;5093066;28;20418;-80
2023/07/31 10:12:27;;;;;;;0.30;0.10;;;;;;;;;;5091660;28;20418;-81
2023/07/31 10:14:54;;;;;;;0.30;0.20;;;;;;;;;;5092972;28;20568;-81
2023/07/31 10:17:21;;;;;;;0.60;0.20;;;;;;;;;;5092871;28;20464;-81
2023/07/31 10:19:48;;;;;;;0.90;0.20;;;;;;;;;;5092973;28;20413;-81
2023/07/31 10:22:14;;;;;;;2.00;0.80;;;;;;;;;;5092536;28;20449;-81
2023/07/31 10:24:40;;;;;;;3.20;1.03;;;;;;;;;;5092828;28;20439;-81
2023/07/31 10:27:07;;;;;;;3.10;1.10;;;;;;;;;;5092810;28;20893;-81
2023/07/31 10:29:34;;;;;;;7.03;2.27;;;;;;;;;;5092694;28;20671;-81
2023/07/31 10:32:00;;;;;;;4.43;2.73;;;;;;;;;;5092850;28;20499;-81
2023/07/31 10:34:27;;;;;;;8.30;3.97;;;;;;;;;;5092752;28;20428;-80
2023/07/31 10:37:12;;;;;;;7.67;4.07;;;;;;;;;;5092401;28;20414;-81
2023/07/31 10:39:39;;;;;;;7.27;5.13;;;;;;;;;;5092640;28;20436;-81
2023/07/31 10:42:12;;;;;;;9.00;5.00;;;;;;;;;;5092560;28;20808;-81
2023/07/31 10:44:38;;;;;;;13.80;6.77;;;;;;;;;;5095762;28;20505;-80
2023/07/31 10:47:03;;;;;;;11.03;5.40;;;;;;;;;;5096589;28;20410;-80
2023/07/31 10:49:31;;;;;;;16.47;7.27;;;;;;;;;;5096485;28;20530;-81
2023/07/31 10:51:57;;;;;;;9.03;5.70;;;;;;;;;;5096138;28;20851;-81
2023/07/31 10:54:23;;;;;;;10.40;6.13;;;;;;;;;;5096456;28;20417;-82
2023/07/31 10:56:52;;;;;;;11.57;5.17;;;;;;;;;;5094962;28;20420;-81
2023/07/31 10:59:20;;;;;;;12.83;6.80;;;;;;;;;;5096387;28;20173;-81
2023/07/31 11:01:53;;;;;;;12.37;5.40;;;;;;;;;;5094988;28;20429;-80
2023/07/31 11:04:25;;;;;;;8.10;4.10;;;;;;;;;;5096232;28;20456;-81
2023/07/31 11:06:58;;;;;;;10.07;5.30;;;;;;;;;;5095853;28;20407;-80
2023/07/31 11:09:28;;;;;;;10.13;4.97;;;;;;;;;;5096062;28;20559;-80
2023/07/31 11:11:54;;;;;;;7.93;4.60;;;;;;;;;;5096133;28;20402;-81
2023/07/31 11:14:21;;;;;;;12.10;4.10;;;;;;;;;;5095961;28;20444;-81
2023/07/31 11:16:50;;;;;;;6.97;4.00;;;;;;;;;;5095930;28;20914;-79
2023/07/31 11:19:21;;;;;;;5.97;3.73;;;;;;;;;;5095939;28;20415;-81
2023/07/31 11:21:48;;;;;;;7.80;3.97;;;;;;;;;;5095586;28;20406;-81
2023/07/31 11:24:14;;;;;;;5.27;3.80;;;;;;;;;;5095711;28;20414;-81
2023/07/31 11:26:48;;;;;;;4.03;3.53;;;;;;;;;;5095769;28;20479;-82
2023/07/31 11:29:14;;;;;;;5.30;2.50;;;;;;;;;;5095813;28;20224;-82
2023/07/31 11:31:43;;;;;;;2.93;1.70;;;;;;;;;;5095727;28;20402;-82
2023/07/31 11:34:09;;;;;;;5.03;1.90;;;;;;;;;;5095668;28;20172;-82
2023/07/31 11:36:35;;;;;;;2.77;1.80;;;;;;;;;;5095220;28;20532;-83
2023/07/31 11:39:08;;;;;;;3.50;1.73;;;;;;;;;;5095628;28;20169;-83
2023/07/31 11:41:34;;;;;;;3.53;2.00;;;;;;;;;;5095562;28;20175;-82
2023/07/31 11:44:01;;;;;;;4.73;1.87;;;;;;;;;;5095361;28;20454;-82
2023/07/31 11:46:27;;;;;;;2.93;1.90;;;;;;;;;;5095458;28;20314;-82
2023/07/31 11:48:59;;;;;;;5.83;1.47;;;;;;;;;;5095284;28;20922;-83
2023/07/31 11:51:25;;;;;;;6.63;1.73;;;;;;;;;;5095025;28;20456;-84
2023/07/31 11:53:52;;;;;;;2.20;1.10;;;;;;;;;;5095060;28;20407;-83
2023/07/31 11:56:19;;;;;;;5.77;2.13;;;;;;;;;;5095260;28;20449;-83
2023/07/31 11:58:49;;;;;;;3.90;1.80;;;;;;;;;;5095202;28;20402;-82
2023/07/31 12:01:16;;;;;;;4.73;2.23;;;;;;;;;;5095190;28;20448;-83
2023/07/31 12:03:42;;;;;;;3.10;1.00;;;;;;;;;;5095141;28;20418;-82
2023/07/31 12:06:08;;;;;;;3.20;1.47;;;;;;;;;;5094731;28;20493;-81
2023/07/31 12:08:34;;;;;;;2.50;0.90;;;;;;;;;;5095001;28;20549;-82
2023/07/31 12:11:07;;;;;;;3.90;1.50;;;;;;;;;;5094913;28;20161;-81
2023/07/31 12:13:33;;;;;;;3.20;1.07;;;;;;;;;;5094877;28;20777;-81
2023/07/31 12:16:01;;;;;;;2.63;1.03;;;;;;;;;;5094866;28;20459;-81
2023/07/31 12:18:27;;;;;;;1.90;0.87;;;;;;;;;;5094898;28;20413;-81
2023/07/31 12:20:58;;;;;;;3.43;0.77;;;;;;;;;;5094463;28;20464;-82
2023/07/31 12:23:28;;;;;;;1.03;0.40;;;;;;;;;;5093418;28;20501;-81
2023/07/31 12:26:13;;;;;;;1.63;1.23;;;;;;;;;;5094758;28;20402;-81
2023/07/31 12:28:43;;;;;;;1.40;0.80;;;;;;;;;;5094551;28;20797;-82
2023/07/31 12:31:11;;;;;;;2.60;0.67;;;;;;;;;;5094619;28;20418;-82
2023/07/31 12:33:38;;;;;;;1.30;0.63;;;;;;;;;;5094556;28;20422;-81
2023/07/31 12:36:05;;;;;;;1.83;0.60;;;;;;;;;;5094234;28;20406;-81
2023/07/31 12:38:31;;;;;;;1.40;0.40;;;;;;;;;;5094457;28;20819;-81
2023/07/31 12:40:57;;;;;;;1.40;0.87;;;;;;;;;;5094424;28;20485;-82
2023/07/31 12:43:23;;;;;;;2.13;0.50;;;;;;;;;;5094180;28;20464;-82
2023/07/31 12:45:49;;;;;;;1.77;0.50;;;;;;;;;;5094270;28;20478;-81
2023/07/31 12:48:15;;;;;;;1.20;0.57;;;;;;;;;;5088053;28;20216;-81
2023/07/31 12:50:41;;;;;;;0.80;0.43;;;;;;;;;;5091529;28;20424;-82
2023/07/31 12:53:07;;;;;;;0.70;0.30;;;;;;;;;;5092341;28;20906;-82
2023/07/31 12:55:34;;;;;;;0.80;0.50;;;;;;;;;;5093904;28;20186;-82
2023/07/31 12:58:01;;;;;;;2.20;0.50;;;;;;;;;;5093801;28;20410;-81
2023/07/31 13:00:27;;;;;;;1.13;0.53;;;;;;;;;;5093748;28;20402;-82
2023/07/31 13:02:53;;;;;;;1.37;0.40;;;;;;;;;;5093785;28;20936;-81
2023/07/31 13:05:22;;;;;;;0.87;0.27;;;;;;;;;;5091908;28;20426;-81
2023/07/31 13:07:48;;;;;;;2.00;0.53;;;;;;;;;;5093076;28;20227;-80
2023/07/31 13:10:14;;;;;;;1.17;0.73;;;;;;;;;;5093471;28;20470;-81
2023/07/31 13:12:40;;;;;;;1.10;0.60;;;;;;;;;;5092387;28;20888;-81
2023/07/31 13:15:06;;;;;;;0.80;0.40;;;;;;;;;;5092299;28;20233;-82
2023/07/31 13:17:35;;;;;;;0.77;0.30;;;;;;;;;;5093281;28;20767;-80
2023/07/31 13:20:02;;;;;;;1.13;0.37;;;;;;;;;;5092968;28;20410;-82
2023/07/31 13:22:27;;;;;;;0.57;0.20;;;;;;;;;;5093054;28;20445;-82
2023/07/31 13:24:53;;;;;;;0.80;0.30;;;;;;;;;;5092039;28;20449;-82
2023/07/31 13:27:23;;;;;;;0.87;0.30;;;;;;;;;;5093363;28;20714;-83
2023/07/31 13:29:49;;;;;;;0.50;0.20;;;;;;;;;;5093189;28;20210;-82
2023/07/31 13:32:16;;;;;;;0.50;0.20;;;;;;;;;;5093351;28;20402;-82
2023/07/31 13:34:42;;;;;;;0.60;0.30;;;;;;;;;;5092684;28;20419;-83
2023/07/31 13:37:08;;;;;;;0.73;0.30;;;;;;;;;;5093231;28;20864;-82
2023/07/31 13:39:34;;;;;;;0.50;0.20;;;;;;;;;;5093209;28;20912;-82
2023/07/31 13:42:00;;;;;;;0.73;0.30;;;;;;;;;;5092637;28;20909;-82
2023/07/31 13:44:26;;;;;;;1.40;0.33;;;;;;;;;;5092251;28;20425;-81
2023/07/31 13:46:52;;;;;;;1.13;0.20;;;;;;;;;;5092863;28;20426;-81
2023/07/31 13:49:18;;;;;;;0.60;0.30;;;;;;;;;;5091100;28;20827;-81
2023/07/31 13:51:47;;;;;;;1.50;0.30;;;;;;;;;;5092910;28;20172;-80
2023/07/31 13:54:15;;;;;;;1.03;0.20;;;;;;;;;;5092907;28;20587;-80
2023/07/31 13:56:41;;;;;;;0.80;0.20;;;;;;;;;;5092860;28;20413;-81
2023/07/31 13:59:07;;;;;;;0.50;0.20;;;;;;;;;;5091297;28;20423;-82
2023/07/31 14:01:33;;;;;;;0.40;0.20;;;;;;;;;;5092759;28;20410;-81
2023/07/31 14:03:59;;;;;;;0.67;0.20;;;;;;;;;;5091679;28;20509;-82
2023/07/31 14:06:25;;;;;;;1.00;0.40;;;;;;;;;;5091433;28;20465;-80
2023/07/31 14:08:50;;;;;;;0.53;0.20;;;;;;;;;;5104135;28;20479;-81
2023/07/31 14:11:16;;;;;;;1.00;0.20;;;;;;;;;;5093066;28;20403;-82
2023/07/31 14:13:42;;;;;;;0.50;0.20;;;;;;;;;;5093070;28;20180;-82
2023/07/31 14:16:08;;;;;;;0.57;0.30;;;;;;;;;;5093098;28;20421;-81
2023/07/31 14:18:34;;;;;;;0.80;0.20;;;;;;;;;;5096300;28;20772;-82
2023/07/31 14:21:00;;;;;;;0.60;0.20;;;;;;;;;;5094643;28;20442;-82
2023/07/31 14:23:26;;;;;;;1.13;0.20;;;;;;;;;;5096906;28;20873;-82
2023/07/31 14:25:52;;;;;;;0.70;0.20;;;;;;;;;;5086489;28;20173;-85
2023/07/31 14:28:18;;;;;;;0.40;0.20;;;;;;;;;;5082348;28;20239;-81
2023/07/31 14:30:44;;;;;;;0.70;0.20;;;;;;;;;;5092827;28;20204;-82
2023/07/31 14:33:10;;;;;;;0.60;0.23;;;;;;;;;;5077001;28;20264;-81
2023/07/31 14:35:36;;;;;;;1.07;0.57;;;;;;;;;;5090783;28;20825;-84
2023/07/31 14:38:02;;;;;;;2.10;0.30;;;;;;;;;;5077283;28;20193;-83